createdAt,value
2023-04-09T00:00:15.911Z,100.00
2023-04-09T00:02:45.467Z,100.00
2023-04-09T00:05:17.474Z,100.00
2023-04-09T00:07:46.840Z,100.00
2023-04-09T00:10:16.164Z,100.00
2023-04-09T00:12:45.537Z,100.00
2023-04-09T00:15:27.839Z,100.00
2023-04-09T00:18:00.482Z,100.00
2023-04-09T00:20:32.425Z,100.00
2023-04-09T00:23:01.740Z,100.00
2023-04-09T00:25:31.364Z,100.00
2023-04-09T00:28:00.930Z,100.00
2023-04-09T00:30:31.591Z,100.00
2023-04-09T00:33:01.155Z,100.00
2023-04-09T00:35:33.100Z,100.00
2023-04-09T00:38:02.496Z,100.00
2023-04-09T00:40:32.179Z,100.00
2023-04-09T00:43:02.518Z,100.00
2023-04-09T00:45:32.001Z,100.00
2023-04-09T00:48:01.758Z,100.00
2023-04-09T00:50:33.764Z,100.00
2023-04-09T00:53:03.333Z,100.00
2023-04-09T00:55:33.296Z,100.00
2023-04-09T00:58:03.169Z,100.00
2023-04-09T01:00:32.464Z,100.00
2023-04-09T01:03:02.732Z,100.00
2023-04-09T01:05:44.130Z,100.00
2023-04-09T01:08:22.049Z,100.00
2023-04-09T01:11:02.121Z,100.00
2023-04-09T01:13:37.736Z,100.00
2023-04-09T01:16:08.637Z,100.00
2023-04-09T01:18:43.060Z,100.00
2023-04-09T01:21:18.984Z,100.00
2023-04-09T01:23:58.129Z,100.00
2023-04-09T01:26:41.512Z,100.00
2023-04-09T01:29:13.897Z,100.00
2023-04-09T01:31:45.506Z,100.00
2023-04-09T01:34:16.866Z,100.00
2023-04-09T01:36:51.739Z,100.00
2023-04-09T01:39:21.607Z,100.00
2023-04-09T01:41:52.956Z,100.00
2023-04-09T01:44:27.225Z,100.00
2023-04-09T01:46:57.855Z,100.00
2023-04-09T01:49:27.236Z,100.00
2023-04-09T01:51:56.992Z,100.00
2023-04-09T01:54:26.648Z,100.00
2023-04-09T01:56:56.637Z,100.00
2023-04-09T01:59:28.560Z,100.00
2023-04-09T02:02:02.695Z,100.00
2023-04-09T02:04:36.630Z,100.00
2023-04-09T02:07:09.201Z,100.00
2023-04-09T02:09:42.451Z,100.00
2023-04-09T02:12:15.697Z,100.00
2023-04-09T02:14:49.254Z,100.00
2023-04-09T02:17:18.559Z,100.00
2023-04-09T02:19:49.822Z,100.00
2023-04-09T02:22:19.848Z,100.00
2023-04-09T02:24:49.538Z,100.00
2023-04-09T02:27:19.033Z,100.00
2023-04-09T02:29:50.951Z,100.00
2023-04-09T02:32:20.478Z,100.00
2023-04-09T02:34:49.788Z,100.00
2023-04-09T02:37:19.120Z,100.00
2023-04-09T02:39:48.434Z,100.00
2023-04-09T02:42:17.800Z,100.00
2023-04-09T02:44:47.123Z,100.00
2023-04-09T02:47:19.220Z,100.00
2023-04-09T02:49:48.557Z,100.00
2023-04-09T02:52:19.945Z,100.00
2023-04-09T02:54:49.233Z,100.00
2023-04-09T02:57:18.540Z,100.00
2023-04-09T02:59:48.521Z,100.00
2023-04-09T03:02:20.636Z,100.00
2023-04-09T03:04:50.104Z,100.00
2023-04-09T03:07:19.439Z,100.00
2023-04-09T03:09:48.840Z,100.00
2023-04-09T03:12:18.160Z,100.00
2023-04-09T03:14:47.453Z,100.00
2023-04-09T03:17:16.826Z,100.00
2023-04-09T03:19:48.778Z,100.00
2023-04-09T03:22:18.079Z,100.00
2023-04-09T03:24:47.640Z,100.00
2023-04-09T03:27:17.048Z,100.00
2023-04-09T03:29:46.358Z,100.00
2023-04-09T03:32:17.846Z,100.00
2023-04-09T03:34:50.898Z,100.00
2023-04-09T03:37:20.194Z,100.00
2023-04-09T03:39:49.492Z,100.00
2023-04-09T03:42:18.825Z,100.00
2023-04-09T03:44:48.137Z,100.00
2023-04-09T03:47:17.464Z,100.00
2023-04-09T03:49:46.780Z,100.00
2023-04-09T03:52:18.636Z,100.00
2023-04-09T03:54:47.983Z,100.00
2023-04-09T03:57:17.326Z,100.00
2023-04-09T03:59:46.808Z,100.00
2023-04-09T04:02:16.479Z,100.00
2023-04-09T04:04:45.959Z,100.00
2023-04-09T04:07:18.056Z,100.00
2023-04-09T04:09:47.351Z,100.00
2023-04-09T04:12:16.644Z,100.00
2023-04-09T04:14:45.988Z,100.00
2023-04-09T04:17:15.568Z,100.00
2023-04-09T04:19:44.997Z,100.00
2023-04-09T04:22:18.638Z,100.00
2023-04-09T04:24:47.963Z,100.00
2023-04-09T04:27:20.235Z,100.00
2023-04-09T04:29:49.520Z,100.00
2023-04-09T04:32:18.819Z,100.00
2023-04-09T04:34:51.839Z,100.00
2023-04-09T04:37:23.842Z,100.00
2023-04-09T04:39:53.184Z,100.00
2023-04-09T04:42:23.297Z,100.00
2023-04-09T04:44:52.598Z,100.00
2023-04-09T04:47:22.151Z,100.00
2023-04-09T04:49:51.461Z,100.00
2023-04-09T04:52:23.390Z,100.00
2023-04-09T04:54:52.980Z,100.00
2023-04-09T04:57:22.279Z,100.00
2023-04-09T04:59:51.577Z,100.00
2023-04-09T05:02:21.160Z,100.00
2023-04-09T05:04:50.625Z,100.00
2023-04-09T05:07:19.962Z,100.00
2023-04-09T05:09:51.909Z,100.00
2023-04-09T05:12:21.288Z,100.00
2023-04-09T05:14:50.602Z,100.00
2023-04-09T05:17:21.101Z,100.00
2023-04-09T05:19:55.430Z,100.00
2023-04-09T05:22:24.813Z,100.00
2023-04-09T05:24:56.711Z,100.00
2023-04-09T05:27:28.910Z,100.00
2023-04-09T05:30:00.667Z,100.00
2023-04-09T05:32:30.830Z,100.00
2023-04-09T05:35:00.231Z,100.00
2023-04-09T05:37:29.817Z,100.00
2023-04-09T05:40:07.966Z,100.00
2023-04-09T05:42:38.207Z,100.00
2023-04-09T05:45:08.796Z,100.00
2023-04-09T05:47:38.415Z,100.00
2023-04-09T05:50:08.904Z,100.00
2023-04-09T05:52:38.431Z,100.00
2023-04-09T05:55:11.663Z,100.00
2023-04-09T05:57:41.826Z,100.00
2023-04-09T06:00:12.370Z,100.00
2023-04-09T06:02:41.739Z,100.00
2023-04-09T06:05:12.079Z,100.00
2023-04-09T06:07:41.456Z,100.00
2023-04-09T06:10:13.970Z,100.00
2023-04-09T06:12:43.482Z,100.00
2023-04-09T06:15:14.053Z,100.00
2023-04-09T06:17:43.733Z,100.00
2023-04-09T06:20:13.704Z,100.00
2023-04-09T06:22:42.996Z,100.00
2023-04-09T06:25:15.011Z,100.00
2023-04-09T06:27:44.376Z,100.00
2023-04-09T06:30:14.819Z,100.00
2023-04-09T06:32:54.622Z,100.00
2023-04-09T06:35:24.720Z,100.00
2023-04-09T06:37:54.056Z,100.00
2023-04-09T06:40:26.000Z,100.00
2023-04-09T06:42:55.566Z,100.00
2023-04-09T06:45:25.530Z,100.00
2023-04-09T06:47:54.930Z,100.00
2023-04-09T06:50:24.267Z,100.00
2023-04-09T06:52:54.317Z,100.00
2023-04-09T06:55:26.979Z,100.00
2023-04-09T06:57:56.441Z,100.00
2023-04-09T07:00:26.414Z,100.00
2023-04-09T07:02:57.290Z,100.00
2023-04-09T07:05:27.134Z,100.00
2023-04-09T07:07:56.622Z,100.00
2023-04-09T07:10:28.637Z,100.00
2023-04-09T07:12:57.971Z,100.00
2023-04-09T07:15:27.303Z,100.00
2023-04-09T07:17:57.788Z,100.00
2023-04-09T07:20:27.348Z,100.00
2023-04-09T07:22:56.646Z,100.00
2023-04-09T07:25:28.562Z,100.00
2023-04-09T07:27:57.870Z,100.00
2023-04-09T07:30:27.524Z,100.00
2023-04-09T07:32:57.222Z,100.00
2023-04-09T07:35:26.633Z,100.00
2023-04-09T07:37:55.944Z,100.00
2023-04-09T07:40:27.851Z,100.00
2023-04-09T07:42:58.249Z,100.00
2023-04-09T07:45:27.571Z,100.00
2023-04-09T07:47:56.934Z,100.00
2023-04-09T07:50:27.129Z,100.00
2023-04-09T07:52:56.600Z,100.00
2023-04-09T07:55:28.584Z,100.00
2023-04-09T07:57:58.046Z,100.00
2023-04-09T08:00:27.648Z,100.00
2023-04-09T08:02:57.946Z,100.00
2023-04-09T08:05:28.446Z,100.00
2023-04-09T08:07:57.835Z,100.00
2023-04-09T08:10:29.852Z,100.00
2023-04-09T08:12:59.224Z,100.00
2023-04-09T08:15:28.540Z,100.00
2023-04-09T08:17:57.926Z,100.00
2023-04-09T08:20:28.108Z,100.00
2023-04-09T08:22:57.754Z,100.00
2023-04-09T08:25:29.752Z,100.00
2023-04-09T08:27:59.165Z,100.00
2023-04-09T08:30:28.481Z,100.00
2023-04-09T08:32:57.997Z,100.00
2023-04-09T08:35:29.172Z,100.00
2023-04-09T08:37:58.968Z,100.00
2023-04-09T08:40:31.073Z,100.00
2023-04-09T08:43:01.688Z,100.00
2023-04-09T08:45:31.347Z,100.00
2023-04-09T08:48:03.061Z,100.00
2023-04-09T08:50:35.369Z,100.00
2023-04-09T08:53:06.193Z,100.00
2023-04-09T08:55:38.514Z,100.00
2023-04-09T08:58:10.741Z,100.00
2023-04-09T09:00:40.847Z,100.00
2023-04-09T09:03:13.299Z,100.00
2023-04-09T09:05:44.108Z,100.00
2023-04-09T09:08:15.793Z,100.00
2023-04-09T09:10:48.850Z,100.00
2023-04-09T09:13:23.563Z,100.00
2023-04-09T09:15:55.345Z,100.00
2023-04-09T09:18:41.872Z,100.00
2023-04-09T09:21:15.859Z,100.00
2023-04-09T09:23:45.462Z,100.00
2023-04-09T09:26:19.399Z,100.00
2023-04-09T09:28:50.240Z,100.00
2023-04-09T09:31:21.635Z,100.00
2023-04-09T09:33:52.050Z,100.00
2023-04-09T09:36:34.770Z,100.00
2023-04-09T09:39:10.365Z,100.00
2023-04-09T09:41:43.437Z,100.00
2023-04-09T09:44:14.178Z,100.00
2023-04-09T09:46:44.882Z,100.00
2023-04-09T09:49:14.453Z,100.00
2023-04-09T09:51:44.270Z,100.00
2023-04-09T09:54:14.794Z,100.00
2023-04-09T09:56:47.309Z,100.00
2023-04-09T09:59:22.431Z,100.00
2023-04-09T10:01:59.899Z,100.00
2023-04-09T10:04:32.454Z,100.00
2023-04-09T10:07:04.472Z,100.00
2023-04-09T10:09:34.104Z,100.00
2023-04-09T10:12:09.641Z,100.00
2023-04-09T10:14:40.132Z,100.00
2023-04-09T10:17:10.128Z,100.00
2023-04-09T10:19:45.968Z,100.00
2023-04-09T10:22:19.633Z,100.00
2023-04-09T10:24:49.851Z,100.00
2023-04-09T10:27:22.048Z,100.00
2023-04-09T10:29:52.596Z,100.00
2023-04-09T10:32:28.336Z,100.00
2023-04-09T10:35:01.148Z,100.00
2023-04-09T10:37:31.003Z,100.00
2023-04-09T10:40:00.896Z,100.00
2023-04-09T10:42:40.230Z,100.00
2023-04-09T10:45:11.778Z,100.00
2023-04-09T10:47:42.944Z,100.00
2023-04-09T10:50:19.947Z,100.00
2023-04-09T10:52:50.026Z,100.00
2023-04-09T10:55:38.999Z,100.00
2023-04-09T10:58:13.646Z,100.00
2023-04-09T11:00:44.731Z,100.00
2023-04-09T11:03:25.729Z,100.00
2023-04-09T11:06:00.452Z,100.00
2023-04-09T11:08:33.746Z,100.00
2023-04-09T11:11:04.022Z,100.00
2023-04-09T11:13:36.211Z,100.00
2023-04-09T11:16:07.415Z,100.00
2023-04-09T11:18:37.626Z,100.00
2023-04-09T11:21:07.145Z,100.00
2023-04-09T11:23:38.016Z,100.00
2023-04-09T11:26:07.555Z,100.00
2023-04-09T11:28:40.048Z,100.00
2023-04-09T11:31:09.607Z,100.00
2023-04-09T11:33:38.982Z,100.00
2023-04-09T11:36:09.108Z,100.00
2023-04-09T11:38:39.924Z,100.00
2023-04-09T11:41:13.047Z,100.00
2023-04-09T11:43:45.048Z,98.62
2023-04-09T11:46:14.571Z,100.00
2023-04-09T11:48:44.039Z,100.00
2023-04-09T11:51:13.470Z,98.28
2023-04-09T11:53:42.985Z,100.00
2023-04-09T11:56:13.641Z,97.82
2023-04-09T11:58:49.272Z,95.01
2023-04-09T12:01:19.077Z,94.41
2023-04-09T12:03:55.558Z,97.39
2023-04-09T12:06:25.989Z,99.60
2023-04-09T12:08:55.963Z,100.00
2023-04-09T12:11:31.940Z,94.72
2023-04-09T12:14:07.749Z,98.50
2023-04-09T12:16:38.302Z,95.40
2023-04-09T12:19:09.402Z,94.81
2023-04-09T12:21:49.398Z,93.74
2023-04-09T12:24:19.752Z,94.61
2023-04-09T12:26:49.657Z,100.00
2023-04-09T12:29:23.217Z,92.17
2023-04-09T12:31:53.991Z,91.26
2023-04-09T12:34:23.413Z,90.95
2023-04-09T12:36:52.762Z,90.90
2023-04-09T12:39:22.520Z,88.58
2023-04-09T12:41:54.509Z,86.15
2023-04-09T12:44:26.540Z,87.68
2023-04-09T12:46:56.315Z,87.76
2023-04-09T12:49:25.773Z,87.28
2023-04-09T12:51:55.102Z,86.56
2023-04-09T12:54:24.416Z,86.73
2023-04-09T12:56:53.720Z,90.32
2023-04-09T12:59:23.052Z,87.96
2023-04-09T13:01:55.076Z,85.46
2023-04-09T13:04:25.820Z,86.33
2023-04-09T13:06:55.174Z,87.09
2023-04-09T13:09:24.508Z,85.49
2023-04-09T13:11:54.059Z,85.39
2023-04-09T13:14:23.356Z,85.52
2023-04-09T13:16:55.573Z,84.84
2023-04-09T13:19:24.915Z,86.05
2023-04-09T13:21:54.418Z,85.80
2023-04-09T13:24:23.765Z,85.49
2023-04-09T13:26:54.104Z,83.18
2023-04-09T13:29:23.468Z,85.14
2023-04-09T13:31:55.816Z,84.85
2023-04-09T13:34:25.242Z,82.89
2023-04-09T13:36:54.824Z,83.91
2023-04-09T13:39:24.144Z,84.30
2023-04-09T13:41:55.379Z,84.95
2023-04-09T13:44:24.825Z,81.42
2023-04-09T13:46:56.705Z,82.33
2023-04-09T13:49:27.225Z,81.23
2023-04-09T13:51:56.654Z,81.24
2023-04-09T13:54:26.085Z,82.51
2023-04-09T13:56:55.544Z,81.94
2023-04-09T13:59:24.861Z,80.75
2023-04-09T14:01:56.936Z,78.43
2023-04-09T14:04:26.724Z,75.53
2023-04-09T14:06:56.088Z,76.19
2023-04-09T14:09:25.638Z,77.71
2023-04-09T14:11:55.214Z,75.74
2023-04-09T14:14:24.521Z,76.64
2023-04-09T14:16:56.462Z,74.57
2023-04-09T14:19:25.877Z,75.46
2023-04-09T14:21:55.869Z,75.31
2023-04-09T14:24:25.800Z,75.99
2023-04-09T14:26:55.098Z,77.81
2023-04-09T14:29:24.520Z,76.44
2023-04-09T14:31:57.402Z,77.47
2023-04-09T14:34:26.754Z,76.34
2023-04-09T14:36:56.112Z,75.58
2023-04-09T14:39:25.713Z,74.57
2023-04-09T14:41:57.093Z,73.69
2023-04-09T14:44:27.722Z,72.01
2023-04-09T14:47:00.108Z,71.17
2023-04-09T14:49:30.318Z,70.18
2023-04-09T14:51:59.636Z,69.92
2023-04-09T14:54:30.568Z,69.58
2023-04-09T14:57:00.152Z,68.93
2023-04-09T14:59:29.678Z,67.34
2023-04-09T15:02:01.686Z,68.39
2023-04-09T15:04:31.285Z,70.51
2023-04-09T15:07:00.860Z,71.90
2023-04-09T15:09:30.463Z,69.53
2023-04-09T15:11:59.784Z,69.67
2023-04-09T15:14:31.667Z,69.69
2023-04-09T15:17:03.561Z,69.60
2023-04-09T15:19:33.268Z,69.26
2023-04-09T15:22:02.617Z,69.79
2023-04-09T15:24:31.953Z,71.90
2023-04-09T15:27:03.449Z,71.06
2023-04-09T15:29:32.769Z,70.47
2023-04-09T15:32:06.219Z,69.87
2023-04-09T15:34:35.611Z,69.72
2023-04-09T15:37:04.976Z,69.46
2023-04-09T15:39:35.163Z,70.29
2023-04-09T15:42:04.628Z,69.25
2023-04-09T15:44:34.423Z,69.34
2023-04-09T15:47:07.108Z,69.43
2023-04-09T15:49:37.672Z,68.26
2023-04-09T15:52:07.267Z,68.71
2023-04-09T15:54:36.641Z,70.36
2023-04-09T15:57:06.275Z,68.35
2023-04-09T15:59:35.701Z,68.28
2023-04-09T16:02:09.514Z,68.41
2023-04-09T16:04:38.948Z,68.02
2023-04-09T16:07:09.546Z,68.76
2023-04-09T16:09:39.058Z,68.34
2023-04-09T16:12:09.138Z,68.13
2023-04-09T16:14:39.308Z,68.03
2023-04-09T16:17:11.388Z,66.94
2023-04-09T16:19:40.785Z,68.76
2023-04-09T16:22:10.113Z,68.67
2023-04-09T16:24:39.605Z,69.04
2023-04-09T16:27:09.077Z,69.39
2023-04-09T16:29:38.383Z,70.72
2023-04-09T16:32:08.255Z,71.39
2023-04-09T16:34:40.240Z,71.75
2023-04-09T16:37:10.156Z,71.42
2023-04-09T16:39:39.680Z,71.82
2023-04-09T16:42:09.638Z,72.08
2023-04-09T16:44:39.183Z,73.04
2023-04-09T16:47:08.606Z,73.21
2023-04-09T16:49:40.538Z,72.90
2023-04-09T16:52:09.884Z,73.17
2023-04-09T16:54:39.240Z,73.70
2023-04-09T16:57:08.715Z,73.13
2023-04-09T16:59:38.031Z,72.81
2023-04-09T17:02:07.857Z,72.70
2023-04-09T17:04:39.949Z,72.31
2023-04-09T17:07:09.264Z,72.29
2023-04-09T17:09:38.582Z,73.50
2023-04-09T17:12:08.181Z,73.01
2023-04-09T17:14:38.920Z,72.68
2023-04-09T17:17:08.544Z,72.90
2023-04-09T17:19:42.719Z,73.56
2023-04-09T17:22:13.513Z,74.10
2023-04-09T17:24:43.044Z,73.99
2023-04-09T17:27:12.633Z,74.47
2023-04-09T17:29:41.962Z,74.88
2023-04-09T17:32:11.257Z,74.97
2023-04-09T17:34:43.173Z,74.88
2023-04-09T17:37:12.468Z,75.19
2023-04-09T17:39:41.793Z,74.81
2023-04-09T17:42:11.997Z,76.50
2023-04-09T17:44:41.704Z,76.49
2023-04-09T17:47:12.381Z,76.27
2023-04-09T17:49:44.800Z,76.67
2023-04-09T17:52:15.539Z,77.93
2023-04-09T17:54:45.643Z,77.03
2023-04-09T17:57:15.695Z,77.10
2023-04-09T17:59:44.997Z,76.67
2023-04-09T18:02:14.430Z,77.15
2023-04-09T18:04:46.678Z,77.93
2023-04-09T18:07:16.165Z,78.82
2023-04-09T18:09:45.724Z,77.95
2023-04-09T18:12:15.083Z,78.27
2023-04-09T18:14:44.417Z,76.91
2023-04-09T18:17:15.200Z,76.93
2023-04-09T18:19:48.240Z,76.11
2023-04-09T18:22:17.637Z,76.59
2023-04-09T18:24:47.179Z,77.00
2023-04-09T18:27:17.851Z,76.28
2023-04-09T18:29:49.226Z,75.36
2023-04-09T18:32:19.722Z,75.76
2023-04-09T18:34:53.261Z,74.79
2023-04-09T18:37:23.800Z,74.05
2023-04-09T18:39:53.160Z,75.03
2023-04-09T18:42:22.565Z,75.08
2023-04-09T18:44:52.236Z,74.46
2023-04-09T18:47:21.592Z,76.35
2023-04-09T18:49:53.496Z,76.53
2023-04-09T18:52:22.883Z,76.87
2023-04-09T18:54:52.214Z,76.53
2023-04-09T18:57:22.316Z,75.83
2023-04-09T18:59:51.849Z,76.48
2023-04-09T19:02:21.417Z,74.65
2023-04-09T19:04:53.671Z,73.62
2023-04-09T19:07:23.141Z,74.04
2023-04-09T19:09:52.467Z,75.02
2023-04-09T19:12:22.074Z,75.41
2023-04-09T19:14:51.506Z,75.21
2023-04-09T19:17:21.422Z,74.53
2023-04-09T19:19:53.456Z,74.62
2023-04-09T19:22:23.099Z,74.38
2023-04-09T19:24:52.519Z,74.44
2023-04-09T19:27:21.859Z,75.23
2023-04-09T19:29:51.236Z,75.00
2023-04-09T19:32:20.591Z,76.08
2023-04-09T19:34:49.993Z,76.51
2023-04-09T19:37:25.639Z,76.14
2023-04-09T19:39:54.970Z,76.16
2023-04-09T19:42:24.365Z,77.30
2023-04-09T19:44:53.813Z,76.78
2023-04-09T19:47:23.257Z,76.10
2023-04-09T19:49:52.642Z,75.85
2023-04-09T19:52:24.632Z,75.63
2023-04-09T19:54:56.678Z,75.98
2023-04-09T19:57:26.591Z,76.14
2023-04-09T19:59:55.956Z,75.53
2023-04-09T20:02:25.435Z,75.93
2023-04-09T20:04:54.977Z,75.67
2023-04-09T20:07:27.333Z,75.64
2023-04-09T20:09:56.683Z,75.09
2023-04-09T20:12:29.480Z,75.89
2023-04-09T20:14:58.968Z,75.45
2023-04-09T20:17:28.367Z,74.91
2023-04-09T20:19:58.068Z,75.17
2023-04-09T20:22:30.249Z,74.90
2023-04-09T20:25:00.055Z,75.06
2023-04-09T20:27:29.700Z,75.45
2023-04-09T20:29:59.028Z,74.12
2023-04-09T20:32:28.511Z,74.40
2023-04-09T20:34:58.045Z,75.26
2023-04-09T20:37:29.984Z,74.75
2023-04-09T20:39:59.307Z,74.75
2023-04-09T20:42:28.652Z,74.63
2023-04-09T20:45:01.222Z,74.27
2023-04-09T20:47:31.217Z,74.29
2023-04-09T20:50:01.405Z,74.63
2023-04-09T20:52:33.498Z,74.80
2023-04-09T20:55:04.652Z,75.42
2023-04-09T20:57:33.990Z,75.80
2023-04-09T21:00:05.975Z,76.22
2023-04-09T21:02:35.486Z,76.59
2023-04-09T21:05:15.695Z,77.08
2023-04-09T21:07:54.752Z,77.29
2023-04-09T21:10:24.373Z,77.52
2023-04-09T21:12:53.720Z,77.59
2023-04-09T21:15:23.037Z,78.39
2023-04-09T21:17:52.700Z,79.45
2023-04-09T21:20:23.518Z,79.05
2023-04-09T21:22:56.358Z,79.82
2023-04-09T21:25:29.840Z,80.04
2023-04-09T21:27:59.363Z,80.41
2023-04-09T21:30:29.078Z,80.36
2023-04-09T21:33:01.210Z,80.17
2023-04-09T21:35:30.726Z,80.19
2023-04-09T21:38:03.092Z,80.80
2023-04-09T21:40:33.356Z,80.74
2023-04-09T21:43:04.815Z,81.73
2023-04-09T21:45:34.167Z,82.26
2023-04-09T21:48:03.513Z,82.80
2023-04-09T21:50:34.137Z,83.44
2023-04-09T21:53:06.263Z,83.33
2023-04-09T21:55:37.358Z,84.08
2023-04-09T21:58:07.189Z,83.94
2023-04-09T22:00:36.646Z,84.11
2023-04-09T22:03:09.029Z,84.53
2023-04-09T22:05:38.611Z,85.78
2023-04-09T22:08:10.583Z,86.03
2023-04-09T22:10:40.202Z,85.65
2023-04-09T22:13:09.529Z,85.68
2023-04-09T22:15:38.928Z,86.22
2023-04-09T22:18:08.325Z,86.69
2023-04-09T22:20:38.620Z,86.52
2023-04-09T22:23:10.700Z,85.83
2023-04-09T22:25:40.008Z,85.49
2023-04-09T22:28:09.317Z,84.78
2023-04-09T22:30:38.684Z,85.09
2023-04-09T22:33:08.142Z,84.89
2023-04-09T22:35:37.592Z,85.11
2023-04-09T22:38:07.210Z,84.56
2023-04-09T22:40:39.300Z,84.22
2023-04-09T22:43:13.073Z,85.24
2023-04-09T22:45:42.507Z,84.16
2023-04-09T22:48:11.808Z,83.35
2023-04-09T22:50:41.654Z,83.33
2023-04-09T22:53:11.053Z,82.63
2023-04-09T22:55:43.466Z,83.17
2023-04-09T22:58:13.099Z,83.33
2023-04-09T23:00:42.849Z,83.59
2023-04-09T23:03:12.682Z,83.78
2023-04-09T23:05:43.799Z,84.38
2023-04-09T23:08:13.182Z,83.92
2023-04-09T23:10:45.386Z,84.43
2023-04-09T23:13:20.765Z,84.76
2023-04-09T23:15:52.142Z,84.53
2023-04-09T23:18:21.623Z,83.99
2023-04-09T23:20:51.502Z,85.32
2023-04-09T23:23:21.052Z,84.35
2023-04-09T23:25:53.119Z,83.35
2023-04-09T23:28:25.124Z,83.80
2023-04-09T23:30:56.782Z,83.89
2023-04-09T23:33:29.515Z,84.58
2023-04-09T23:35:59.286Z,84.46
2023-04-09T23:38:28.660Z,84.99
2023-04-09T23:41:00.694Z,85.09
2023-04-09T23:43:32.588Z,84.27
2023-04-09T23:46:03.472Z,85.66
2023-04-09T23:48:32.826Z,84.12
2023-04-09T23:51:04.420Z,85.52
2023-04-09T23:53:34.286Z,83.75
2023-04-09T23:56:09.956Z,83.96
2023-04-09T23:58:40.443Z,85.12
